Time;durP1;ratioP1;P1;durP2;ratioP2;P2;SDS_P1;SDS_P2;PMS_P1;PMS_P2;Temp;Humidity;BMP_temperature;BMP_pressure;BME280_temperature;BME280_humidity;BME280_pressure;Samples;Min_cycle;Max_cycle;Signal;HPM_P1;HPM_P2
2023/09/26 00:00:23;;;;;;;12.80;9.20;;;;;;;20.95;100.00;100795.70;104542;1254;74375;-57
2023/09/26 00:02:53;;;;;;;11.20;9.70;;;;;;;20.94;100.00;100800.77;104529;1273;69816;-57
2023/09/26 00:05:22;;;;;;;12.20;9.50;;;;;;;20.89;100.00;100795.89;104486;1251;72012;-58
2023/09/26 00:07:51;;;;;;;10.90;9.60;;;;;;;20.86;100.00;100796.17;104552;1265;62806;-57
2023/09/26 00:10:18;;;;;;;10.90;9.80;;;;;;;20.83;100.00;100795.47;104476;1253;60492;-58
2023/09/26 00:12:46;;;;;;;11.10;9.70;;;;;;;20.78;100.00;100789.91;104314;1274;74034;-58
2023/09/26 00:15:12;;;;;;;12.80;9.90;;;;;;;20.76;100.00;100793.09;104515;1256;69616;-58
2023/09/26 00:17:42;;;;;;;10.30;9.20;;;;;;;20.73;100.00;100793.60;104498;1250;73157;-58
2023/09/26 00:20:10;;;;;;;13.50;9.80;;;;;;;20.69;100.00;100795.70;104602;1251;61359;-58
2023/09/26 00:22:39;;;;;;;14.30;9.80;;;;;;;20.64;100.00;100793.89;104557;1250;60434;-57
2023/09/26 00:25:07;;;;;;;12.40;11.10;;;;;;;20.59;100.00;100794.36;104504;1273;73301;-58
2023/09/26 00:27:34;;;;;;;10.10;9.10;;;;;;;20.55;100.00;100791.23;104673;1254;69355;-57
2023/09/26 00:30:00;;;;;;;10.10;9.10;;;;;;;20.50;100.00;100790.12;104409;1250;73168;-57
2023/09/26 00:32:30;;;;;;;10.70;9.60;;;;;;;20.47;100.00;100788.20;104338;1256;61957;-57
2023/09/26 00:34:57;;;;;;;11.20;10.10;;;;;;;20.44;100.00;100791.95;104500;1258;60541;-58
2023/09/26 00:37:23;;;;;;;12.80;9.70;;;;;;;20.40;100.00;100790.98;104628;1255;73433;-57
2023/09/26 00:39:51;;;;;;;11.40;10.20;;;;;;;20.37;100.00;100792.77;104473;1272;70168;-57
2023/09/26 00:42:18;;;;;;;13.20;9.60;;;;;;;20.34;100.00;100795.85;104342;1257;71152;-57
2023/09/26 00:44:45;;;;;;;11.30;10.10;;;;;;;20.31;100.00;100791.77;104651;1251;62519;-58
2023/09/26 00:47:12;;;;;;;10.50;9.40;;;;;;;20.29;100.00;100793.84;107879;1251;60530;-58
2023/09/26 00:49:39;;;;;;;12.50;10.90;;;;;;;20.24;100.00;100793.80;104836;1254;73555;-58
2023/09/26 00:52:06;;;;;;;14.30;10.20;;;;;;;20.19;100.00;100794.27;104539;1258;69762;-57
2023/09/26 00:54:33;;;;;;;13.40;10.50;;;;;;;20.16;100.00;100796.79;104327;1273;72083;-57
2023/09/26 00:57:00;;;;;;;11.60;10.40;;;;;;;20.15;100.00;100795.44;104655;1268;61376;-57
2023/09/26 00:59:28;;;;;;;13.50;11.10;;;;;;;20.12;100.00;100796.16;104521;1273;60096;-58
2023/09/26 01:01:55;;;;;;;12.10;10.30;;;;;;;20.10;100.00;100798.80;104501;1250;74094;-57
2023/09/26 01:04:22;;;;;;;11.60;10.40;;;;;;;20.06;100.00;100796.73;104510;1256;69169;-58
2023/09/26 01:06:49;;;;;;;12.90;10.80;;;;;;;20.04;100.00;100800.23;104308;1273;71552;-57
2023/09/26 01:09:17;;;;;;;14.50;10.00;;;;;;;20.01;100.00;100802.54;104604;1266;61802;-57
2023/09/26 01:11:44;;;;;;;11.90;10.80;;;;;;;19.98;100.00;100799.21;104433;1255;60545;-58
2023/09/26 01:14:11;;;;;;;12.60;10.60;;;;;;;19.94;100.00;100800.88;104299;1253;74091;-57
2023/09/26 01:16:38;;;;;;;12.00;10.10;;;;;;;19.92;100.00;100800.11;104391;1258;69301;-57
2023/09/26 01:19:05;;;;;;;;;;;;;;;19.91;100.00;100800.02;104470;1256;71636;-58
2023/09/26 01:21:33;;;;;;;13.60;10.00;;;;;;;19.90;100.00;100800.42;104552;1254;61402;-57
2023/09/26 01:24:02;;;;;;;12.80;10.10;;;;;;;19.87;100.00;100800.25;104512;1266;59790;-58
2023/09/26 01:26:36;;;;;;;13.30;11.00;;;;;;;19.84;100.00;100794.20;104282;1273;73057;-57
2023/09/26 01:29:04;;;;;;;12.30;10.60;;;;;;;19.80;100.00;100797.84;104649;1266;70142;-57
2023/09/26 01:31:34;;;;;;;11.30;10.20;;;;;;;19.78;100.00;100800.11;104322;1274;72286;-57
2023/09/26 01:34:03;;;;;;;11.70;10.40;;;;;;;19.75;100.00;100800.84;104307;1274;61575;-57
2023/09/26 01:36:31;;;;;;;11.10;10.10;;;;;;;19.75;100.00;100797.07;104416;1263;60521;-57
2023/09/26 01:38:58;;;;;;;12.40;10.70;;;;;;;19.76;100.00;100793.25;104496;1255;74169;-57
2023/09/26 01:41:27;;;;;;;11.00;10.00;;;;;;;19.79;100.00;100793.84;104544;1251;69851;-58
2023/09/26 01:43:53;;;;;;;11.50;10.40;;;;;;;19.78;100.00;100799.73;104489;1250;73317;-58
2023/09/26 01:46:28;;;;;;;11.30;10.10;;;;;;;19.75;100.00;100791.20;105928;1253;61734;-58
2023/09/26 01:48:55;;;;;;;13.10;10.40;;;;;;;19.72;100.00;100793.17;104382;1272;61538;-58
2023/09/26 01:51:22;;;;;;;12.60;10.40;;;;;;;19.70;100.00;100797.91;104739;1255;73962;-58
2023/09/26 01:53:48;;;;;;;13.10;10.80;;;;;;;19.68;100.00;100801.11;104430;1266;70190;-59
2023/09/26 01:56:16;;;;;;;11.80;10.70;;;;;;;19.65;100.00;100802.45;104661;1255;72355;-58
2023/09/26 01:58:43;;;;;;;14.30;10.30;;;;;;;19.64;100.00;100805.39;104473;1250;61631;-57
2023/09/26 02:01:12;;;;;;;15.30;10.70;;;;;;;19.61;100.00;100808.40;104275;1263;60608;-58
2023/09/26 02:03:39;;;;;;;13.60;11.50;;;;;;;19.59;100.00;100808.91;104533;1273;73650;-57
2023/09/26 02:06:05;;;;;;;15.50;11.40;;;;;;;19.57;100.00;100808.49;104582;1273;68567;-58
2023/09/26 02:08:32;;;;;;;15.10;11.50;;;;;;;19.58;100.00;100806.66;104688;1254;72295;-57
2023/09/26 02:11:02;;;;;;;15.10;12.50;;;;;;;19.56;100.00;100807.65;104560;1256;60549;-58
2023/09/26 02:13:28;;;;;;;17.00;11.50;;;;;;;19.57;100.00;100809.55;104504;1250;60549;-58
2023/09/26 02:15:56;;;;;;;16.70;13.40;;;;;;;19.57;100.00;100810.61;104399;1250;73800;-58
2023/09/26 02:18:25;;;;;;;15.70;13.70;;;;;;;19.58;100.00;100813.02;104310;1273;70497;-58
2023/09/26 02:20:55;;;;;;;15.90;14.30;;;;;;;19.60;100.00;100813.79;104831;1254;72919;-57
2023/09/26 02:23:22;;;;;;;18.30;16.40;;;;;;;19.65;100.00;100815.82;104240;1257;61645;-58
2023/09/26 02:25:51;;;;;;;21.80;18.10;;;;;;;19.69;100.00;100818.80;104568;1250;60492;-57
2023/09/26 02:28:19;;;;;;;24.70;18.10;;;;;;;19.73;100.00;100822.30;104302;1251;73384;-57
2023/09/26 02:30:46;;;;;;;21.40;17.60;;;;;;;19.74;100.00;100824.73;104583;1266;69114;-57
2023/09/26 02:33:13;;;;;;;26.10;19.00;;;;;;;19.74;100.00;100826.14;104684;1266;71310;-58
2023/09/26 02:35:41;;;;;;;25.30;20.20;;;;;;;19.73;100.00;100830.45;104553;1250;61619;-57
2023/09/26 02:41:08;;;;;;;29.00;22.60;;;;;;;19.37;100.00;100831.75;101438;1293;601392;-59
2023/09/26 02:43:38;;;;;;;28.10;21.70;;;;;;;19.86;100.00;100831.96;103774;1265;61831;-59
2023/09/26 02:46:05;;;;;;;26.90;22.20;;;;;;;19.92;100.00;100834.44;103515;1268;59836;-59
2023/09/26 02:48:33;;;;;;;;;;;;;;;19.98;100.00;100833.02;106658;1265;71789;-59
2023/09/26 02:51:07;;;;;;;25.00;21.80;;;;;;;20.03;100.00;100833.21;103492;1267;69638;-59
2023/09/26 02:53:34;;;;;;;24.00;20.80;;;;;;;20.06;100.00;100832.69;103318;1282;297732;-62
2023/09/26 02:56:02;;;;;;;26.40;20.50;;;;;;;20.08;100.00;100830.77;103873;1263;60440;-59
2023/09/26 02:58:30;;;;;;;23.20;20.20;;;;;;;20.12;100.00;100830.00;105154;1264;60207;-59
2023/09/26 03:01:00;;;;;;;24.00;19.90;;;;;;;20.14;100.00;100835.33;104987;1264;72428;-59
2023/09/26 03:03:29;;;;;;;22.50;20.20;;;;;;;20.15;100.00;100836.35;103500;1287;69612;-59
2023/09/26 03:05:56;;;;;;;;;;;;;;;20.16;100.00;100832.59;103815;1269;72609;-59
2023/09/26 03:08:24;;;;;;;19.90;18.00;;;;;;;20.17;100.00;100836.61;103781;1264;62351;-58
2023/09/26 03:10:58;;;;;;;22.00;18.30;;;;;;;20.18;100.00;100839.91;103853;1266;59694;-59
2023/09/26 03:13:27;;;;;;;22.50;19.00;;;;;;;20.22;100.00;100840.90;103873;1277;72805;-60
2023/09/26 03:15:55;;;;;;;20.20;18.10;;;;;;;20.24;100.00;100845.77;104522;1260;69773;-57
2023/09/26 03:18:26;;;;;;;21.00;18.80;;;;;;;20.24;100.00;100846.84;104478;1271;72859;-57
2023/09/26 03:20:54;;;;;;;19.30;17.20;;;;;;;20.24;100.00;100853.77;104392;1257;61755;-59
2023/09/26 03:23:22;;;;;;;19.30;17.00;;;;;;;20.21;100.00;100855.76;104270;1262;60680;-57
2023/09/26 03:25:49;;;;;;;17.70;15.90;;;;;;;20.12;100.00;100853.66;104231;1260;73236;-57
2023/09/26 03:28:17;;;;;;;16.60;15.00;;;;;;;20.08;100.00;100853.71;104276;1256;69062;-57
2023/09/26 03:30:46;;;;;;;17.60;15.20;;;;;;;20.09;100.00;100857.05;104396;1256;72862;-58
2023/09/26 03:33:16;;;;;;;20.20;16.40;;;;;;;20.13;100.00;100853.91;104162;1261;61393;-57
2023/09/26 03:35:44;;;;;;;16.20;14.60;;;;;;;20.15;100.00;100857.21;104248;1260;60835;-57
2023/09/26 03:38:12;;;;;;;;;;;;;;;20.14;100.00;100857.27;104135;1260;72902;-57
2023/09/26 03:40:39;;;;;;;15.40;13.70;;;;;;;20.18;100.00;100863.08;104252;1257;69989;-58
2023/09/26 03:43:07;;;;;;;16.00;14.50;;;;;;;20.18;100.00;100861.98;104377;1270;72280;-58
2023/09/26 03:45:35;;;;;;;15.30;13.90;;;;;;;20.17;100.00;100863.30;104277;1256;62357;-58
2023/09/26 03:48:03;;;;;;;16.90;15.10;;;;;;;20.17;100.00;100866.66;104296;1260;59790;-58
2023/09/26 03:50:31;;;;;;;15.40;13.90;;;;;;;20.17;100.00;100868.83;108133;1254;73738;-59
2023/09/26 03:53:01;;;;;;;15.20;13.60;;;;;;;20.19;100.00;100870.12;107937;1254;70117;-58
2023/09/26 03:55:29;;;;;;;13.70;12.50;;;;;;;20.20;100.00;100868.98;104280;1277;72518;-58
2023/09/26 03:57:58;;;;;;;14.70;12.90;;;;;;;20.18;100.00;100868.90;104384;1267;61380;-58
2023/09/26 04:00:27;;;;;;;;;;;;;;;20.21;100.00;100867.85;104265;1275;60803;-57
2023/09/26 04:02:57;;;;;;;14.60;13.00;;;;;;;20.23;100.00;100867.19;104334;1257;72888;-57
2023/09/26 04:05:25;;;;;;;15.90;12.70;;;;;;;20.20;100.00;100863.43;104310;1259;69071;-57
2023/09/26 04:07:53;;;;;;;14.30;12.50;;;;;;;20.20;100.00;100869.16;104278;1257;72922;-58
2023/09/26 04:10:21;;;;;;;16.10;13.20;;;;;;;20.20;100.00;100868.06;104251;1260;62324;-57
2023/09/26 04:12:49;;;;;;;13.60;11.80;;;;;;;20.22;100.00;100874.36;104418;1254;60028;-57
2023/09/26 04:15:17;;;;;;;14.50;13.10;;;;;;;20.26;100.00;100871.86;104221;1255;73240;-57
2023/09/26 04:17:45;;;;;;;14.80;12.30;;;;;;;20.29;100.00;100874.48;104299;1251;69126;-57
2023/09/26 04:20:13;;;;;;;14.30;12.80;;;;;;;20.29;100.00;100872.70;104361;1267;72424;-58
2023/09/26 04:23:01;;;;;;;15.50;12.20;;;;;;;20.29;100.00;100876.06;104358;1268;61425;-58
2023/09/26 04:25:30;;;;;;;;;;;;;;;20.29;100.00;100877.14;104331;1255;59712;-57
2023/09/26 04:28:00;;;;;;;14.00;12.70;;;;;;;20.31;100.00;100878.64;104327;1275;72909;-59
2023/09/26 04:30:28;;;;;;;12.90;11.70;;;;;;;20.32;100.00;100882.10;104607;1257;69072;-59
2023/09/26 04:32:56;;;;;;;;;;;;;;;20.33;100.00;100877.61;104289;1254;73337;-59
2023/09/26 04:35:26;;;;;;;13.70;12.10;;;;;;;20.29;100.00;100881.95;104312;1253;61437;-59
2023/09/26 04:37:56;;;;;;;12.90;11.80;;;;;;;20.27;100.00;100882.10;104279;1271;59942;-59
2023/09/26 04:40:24;;;;;;;13.40;12.00;;;;;;;20.29;100.00;100881.77;104439;1254;73378;-60
2023/09/26 04:42:52;;;;;;;13.10;11.90;;;;;;;20.31;100.00;100885.55;104296;1258;69055;-59
2023/09/26 04:45:19;;;;;;;;;;;;;;;20.32;100.00;100885.86;104586;1253;72338;-60
2023/09/26 04:47:47;;;;;;;13.40;12.00;;;;;;;20.33;100.00;100886.70;108423;1253;61801;-60
2023/09/26 04:50:17;;;;;;;13.10;11.80;;;;;;;20.35;100.00;100888.34;107116;1253;60098;-60
2023/09/26 04:52:45;;;;;;;13.00;11.70;;;;;;;20.37;100.00;100886.58;104476;1272;71986;-61
2023/09/26 04:55:13;;;;;;;14.30;11.60;;;;;;;20.39;100.00;100887.36;104365;1257;69323;-61
2023/09/26 04:57:42;;;;;;;14.80;11.50;;;;;;;20.41;100.00;100887.90;104471;1256;72281;-60
2023/09/26 05:00:11;;;;;;;14.80;11.10;;;;;;;20.46;100.00;100886.42;104606;1251;61360;-60
2023/09/26 05:02:38;;;;;;;13.10;11.20;;;;;;;20.46;100.00;100891.00;104373;1253;60088;-61
2023/09/26 05:05:06;;;;;;;;;;;;;;;20.48;100.00;100891.82;104292;1274;72848;-60
2023/09/26 05:07:34;;;;;;;13.00;11.70;;;;;;;20.52;100.00;100897.75;104392;1268;69888;-60
2023/09/26 05:10:02;;;;;;;14.00;12.60;;;;;;;20.55;100.00;100900.55;104270;1259;71226;-60
2023/09/26 05:12:32;;;;;;;13.50;12.00;;;;;;;20.52;100.00;100894.73;104300;1275;61610;-60
2023/09/26 05:15:00;;;;;;;;;;;;;;;20.54;100.00;100897.07;104308;1264;59746;-60
2023/09/26 05:17:27;;;;;;;;;;;;;;;20.55;100.00;100902.00;104324;1258;72913;-60
2023/09/26 05:19:58;;;;;;;;;;;;;;;20.50;100.00;100900.70;104312;1254;69489;-61
2023/09/26 05:22:26;;;;;;;12.70;11.30;;;;;;;20.52;100.00;100903.61;104282;1275;72325;-60
2023/09/26 05:24:54;;;;;;;11.90;10.80;;;;;;;20.56;100.00;100904.64;104413;1256;61422;-61
2023/09/26 05:27:22;;;;;;;17.10;12.00;;;;;;;20.58;100.00;100909.65;104627;1255;60332;-60
2023/09/26 05:29:50;;;;;;;15.80;11.90;;;;;;;20.60;100.00;100911.12;104424;1256;72855;-59
2023/09/26 05:32:17;;;;;;;13.70;11.80;;;;;;;20.62;100.00;100911.38;104759;1252;70185;-61
2023/09/26 05:34:45;;;;;;;;;;;;;;;20.64;100.00;100913.95;104286;1275;72365;-58
2023/09/26 05:37:13;;;;;;;;;;;;;;;20.65;100.00;100911.35;104290;1257;61473;-59
2023/09/26 05:39:40;;;;;;;11.50;10.40;;;;;;;20.71;100.00;100910.42;104424;1253;60435;-60
2023/09/26 05:42:12;;;;;;;12.10;11.00;;;;;;;20.73;100.00;100910.29;104332;1253;72874;-60
2023/09/26 05:44:39;;;;;;;12.30;11.10;;;;;;;20.74;100.00;100909.69;104290;1253;69140;-58
2023/09/26 05:47:07;;;;;;;18.60;11.80;;;;;;;20.79;100.00;100908.50;104308;1257;72292;-59
2023/09/26 05:49:35;;;;;;;13.50;11.80;;;;;;;20.86;100.00;100912.01;108262;1253;61493;-59
2023/09/26 05:52:03;;;;;;;12.00;11.00;;;;;;;20.91;100.00;100909.50;104647;1253;59760;-58
2023/09/26 05:54:33;;;;;;;11.80;10.70;;;;;;;20.94;100.00;100908.39;104673;1257;73606;-59
2023/09/26 05:57:03;;;;;;;12.50;11.20;;;;;;;20.96;100.00;100910.91;104551;1253;69626;-58
2023/09/26 05:59:31;;;;;;;11.70;10.50;;;;;;;21.02;100.00;100913.02;104583;1256;72929;-59
2023/09/26 06:01:59;;;;;;;14.10;11.50;;;;;;;21.06;100.00;100909.38;104581;1255;62043;-59
2023/09/26 06:04:27;;;;;;;12.20;11.10;;;;;;;21.08;100.00;100908.54;104300;1253;59745;-58
2023/09/26 06:06:55;;;;;;;12.50;11.20;;;;;;;21.09;100.00;100909.90;104312;1257;73675;-58
2023/09/26 06:09:23;;;;;;;14.40;11.10;;;;;;;21.14;100.00;100908.50;104547;1257;69395;-58
2023/09/26 06:11:50;;;;;;;17.30;10.70;;;;;;;21.18;100.00;100908.55;104365;1257;72451;-59
2023/09/26 06:14:18;;;;;;;;;;;;;;;21.25;100.00;100913.31;104409;1258;61772;-59
2023/09/26 06:16:46;;;;;;;12.90;10.70;;;;;;;21.30;100.00;100916.13;104447;1253;60405;-59
2023/09/26 06:19:14;;;;;;;11.80;10.60;;;;;;;21.38;100.00;100916.69;104317;1276;72858;-59
2023/09/26 06:21:44;;;;;;;14.90;11.10;;;;;;;21.46;100.00;100921.02;104276;1266;69076;-59
2023/09/26 06:24:12;;;;;;;14.60;11.20;;;;;;;21.52;100.00;100915.98;104352;1276;72523;-59
2023/09/26 06:26:40;;;;;;;13.10;10.60;;;;;;;21.56;100.00;100913.35;104424;1253;61397;-59
2023/09/26 06:29:07;;;;;;;;;;;;;;;21.61;100.00;100917.66;104362;1260;59740;-60
2023/09/26 06:31:35;;;;;;;15.10;10.10;;;;;;;21.65;100.00;100918.44;104424;1275;71904;-61
2023/09/26 06:34:03;;;;;;;12.40;11.10;;;;;;;21.68;100.00;100919.85;104296;1256;68587;-60
2023/09/26 06:36:34;;;;;;;15.50;11.40;;;;;;;21.68;100.00;100926.11;104368;1254;73013;-59
2023/09/26 06:39:02;;;;;;;11.70;10.50;;;;;;;21.64;100.00;100927.99;104269;1276;61959;-60
2023/09/26 06:41:30;;;;;;;18.50;11.20;;;;;;;21.63;100.00;100930.72;104509;1259;59842;-60
2023/09/26 06:43:58;;;;;;;11.90;10.40;;;;;;;21.66;100.00;100931.59;104554;1259;72785;-60
2023/09/26 06:46:25;;;;;;;16.10;10.80;;;;;;;21.69;100.00;100931.52;104401;1253;69179;-60
2023/09/26 06:48:55;;;;;;;12.20;10.20;;;;;;;21.70;100.00;100931.64;108351;1253;72861;-58
2023/09/26 06:51:24;;;;;;;11.60;10.40;;;;;;;21.74;100.00;100928.38;108437;1252;61481;-58
2023/09/26 06:53:51;;;;;;;12.20;10.20;;;;;;;21.80;100.00;100929.17;106755;1253;60112;-59
2023/09/26 06:56:22;;;;;;;13.50;10.20;;;;;;;21.85;100.00;100925.98;105611;1253;73607;-60
2023/09/26 06:58:50;;;;;;;15.80;10.70;;;;;;;21.91;100.00;100932.86;104408;1253;68426;-60
2023/09/26 07:01:18;;;;;;;13.00;10.70;;;;;;;21.99;100.00;100930.04;104491;1253;73350;-60
2023/09/26 07:03:47;;;;;;;13.40;10.70;;;;;;;22.04;100.00;100934.33;104320;1255;61728;-60
2023/09/26 07:06:15;;;;;;;11.40;10.30;;;;;;;22.09;100.00;100935.73;104448;1257;60558;-60
2023/09/26 07:08:43;;;;;;;;;;;;;;;22.14;100.00;100931.98;104317;1259;73722;-60
2023/09/26 07:11:11;;;;;;;14.40;10.10;;;;;;;22.18;100.00;100929.92;104326;1254;68276;-60
2023/09/26 07:13:39;;;;;;;;;;;;;;;22.22;100.00;100928.59;104331;1258;73275;-60
2023/09/26 07:16:10;;;;;;;14.80;10.00;;;;;;;22.25;100.00;100926.91;104324;1257;60639;-59
2023/09/26 07:18:41;;;;;;;13.00;11.20;;;;;;;22.29;100.00;100930.02;104424;1256;60456;-60
2023/09/26 07:21:11;;;;;;;12.90;11.60;;;;;;;22.35;100.00;100926.95;104393;1256;72741;-59
2023/09/26 07:23:39;;;;;;;16.20;11.90;;;;;;;22.41;100.00;100930.14;104350;1257;69592;-60
2023/09/26 07:26:14;;;;;;;13.50;10.60;;;;;;;22.42;100.00;100923.80;104238;1254;72443;-59
2023/09/26 07:28:44;;;;;;;14.70;11.30;;;;;;;22.51;100.00;100921.14;104265;1257;61411;-60
2023/09/26 07:31:15;;;;;;;13.50;10.60;;;;;;;22.59;100.00;100922.76;104269;1254;60544;-61
2023/09/26 07:33:43;;;;;;;11.20;10.20;;;;;;;22.66;100.00;100918.14;104308;1257;73685;-60
2023/09/26 07:36:11;;;;;;;14.90;11.70;;;;;;;22.74;100.00;100923.06;104307;1253;68291;-59
2023/09/26 07:38:39;;;;;;;13.90;11.20;;;;;;;22.78;100.00;100919.02;104258;1276;73339;-59
2023/09/26 07:41:07;;;;;;;12.30;11.10;;;;;;;22.85;100.00;100916.71;104298;1255;60663;-58
2023/09/26 07:43:35;;;;;;;13.90;11.30;;;;;;;22.90;100.00;100915.77;104427;1254;60819;-58
2023/09/26 07:46:09;;;;;;;13.40;11.40;;;;;;;22.98;100.00;100913.61;104524;1265;74672;-59
2023/09/26 07:48:37;;;;;;;12.00;10.30;;;;;;;23.04;100.00;100914.23;105811;1252;68044;-59
2023/09/26 07:51:07;;;;;;;14.00;10.10;;;;;;;23.13;100.00;100917.54;108305;1252;71792;-60
2023/09/26 07:53:38;;;;;;;12.20;11.10;;;;;;;23.20;100.00;100914.80;105583;1257;60703;-59
2023/09/26 07:56:06;;;;;;;;;;;;;;;23.26;100.00;100913.11;107215;1252;59920;-59
2023/09/26 07:58:33;;;;;;;11.70;10.50;;;;;;;23.35;100.00;100913.70;108376;1252;72608;-60
2023/09/26 08:01:06;;;;;;;13.00;10.80;;;;;;;23.42;100.00;100909.02;108356;1252;69181;-60
2023/09/26 08:03:34;;;;;;;13.60;9.50;;;;;;;23.54;100.00;100904.04;104923;1253;72377;-59
2023/09/26 08:06:03;;;;;;;14.50;11.10;;;;;;;23.62;100.00;100906.06;104291;1253;61368;-59
2023/09/26 08:08:32;;;;;;;14.80;11.30;;;;;;;23.69;100.00;100898.92;104355;1254;60685;-59
2023/09/26 08:11:08;;;;;;;15.10;11.70;;;;;;;23.76;100.00;100899.64;104362;1256;74689;-60
2023/09/26 08:13:37;;;;;;;15.70;10.60;;;;;;;23.81;100.00;100898.88;104238;1253;70487;-59
2023/09/26 08:16:05;;;;;;;13.50;9.50;;;;;;;23.87;100.00;100898.07;104279;1257;72669;-59
2023/09/26 08:18:33;;;;;;;11.60;10.10;;;;;;;23.92;100.00;100896.20;104403;1264;61884;-60
2023/09/26 08:21:00;;;;;;;15.10;10.40;;;;;;;23.99;100.00;100892.63;104345;1258;60481;-59
2023/09/26 08:23:28;;;;;;;;;;;;;;;24.07;100.00;100892.30;104556;1253;73560;-59
2023/09/26 08:25:59;;;;;;;;;;;;;;;24.16;100.00;100886.13;104437;1275;69471;-59
2023/09/26 08:28:31;;;;;;;19.90;9.50;;;;;;;24.21;100.00;100885.19;104290;1269;72853;-59
2023/09/26 08:31:05;;;;;;;15.00;10.20;;;;;;;24.25;100.00;100882.30;104318;1256;60824;-60
2023/09/26 08:33:34;;;;;;;13.30;9.90;;;;;;;24.35;100.00;100880.45;104312;1257;59695;-59
2023/09/26 08:36:02;;;;;;;17.40;10.60;;;;;;;24.41;100.00;100882.64;104266;1253;74588;-59
2023/09/26 08:38:30;;;;;;;24.80;10.20;;;;;;;24.45;100.00;100880.00;104563;1269;68858;-60
2023/09/26 08:40:58;;;;;;;15.80;10.80;;;;;;;24.50;100.00;100876.90;104276;1259;72369;-59
2023/09/26 08:43:26;;;;;;;;;;;;;;;24.56;100.00;100873.89;104322;1259;61876;-59
2023/09/26 08:45:54;;;;;;;17.40;11.00;;;;;;;24.67;100.00;100876.63;104310;1269;60912;-58
2023/09/26 08:48:24;;;;;;;15.70;10.50;;;;;;;24.77;100.00;100879.19;104704;1253;73719;-59
2023/09/26 08:50:52;;;;;;;;;;;;;;;24.85;100.00;100880.67;107452;1253;70340;-60
2023/09/26 08:53:20;;;;;;;12.80;10.60;;;;;;;24.94;100.00;100878.16;106942;1257;73161;-59
2023/09/26 08:55:49;;;;;;;17.40;11.30;;;;;;;24.99;100.00;100875.56;104448;1259;61704;-58
2023/09/26 08:58:18;;;;;;;17.70;11.40;;;;;;;25.07;100.00;100874.52;104393;1254;60706;-58
2023/09/26 09:00:45;;;;;;;16.80;11.20;;;;;;;25.15;100.00;100873.27;104466;1253;73822;-57
2023/09/26 09:03:13;;;;;;;17.80;11.10;;;;;;;25.22;100.00;100866.98;104636;1256;69742;-57
2023/09/26 09:05:43;;;;;;;18.20;11.10;;;;;;;25.30;100.00;100867.77;104401;1257;72290;-57
2023/09/26 09:08:21;;;;;;;16.90;9.60;;;;;;;25.41;100.00;100869.38;104551;1253;61452;-58
2023/09/26 09:10:50;;;;;;;17.40;10.30;;;;;;;25.46;100.00;100870.54;104251;1255;60665;-61
2023/09/26 09:13:45;;;;;;;19.60;9.50;;;;;;;25.55;100.00;100867.28;104659;1267;73351;-58
2023/09/26 09:16:15;;;;;;;15.80;8.60;;;;;;;25.61;100.00;100864.89;104320;1258;69047;-60
2023/09/26 09:18:44;;;;;;;16.00;8.90;;;;;;;25.66;100.00;100864.09;104584;1254;71478;-60
2023/09/26 09:21:27;;;;;;;11.50;8.50;;;;;;;25.75;100.00;100867.33;104422;1254;62035;-60
2023/09/26 09:23:57;;;;;;;17.20;8.90;;;;;;;25.86;100.00;100862.43;104930;1258;60458;-60
2023/09/26 09:26:30;;;;;;;15.20;8.70;;;;;;;25.92;100.00;100859.55;104782;1257;74045;-60
2023/09/26 09:28:59;;;;;;;13.20;8.60;;;;;;;25.97;100.00;100856.23;104507;1253;70098;-60
2023/09/26 09:31:27;;;;;;;13.20;8.00;;;;;;;26.00;98.49;100855.21;104545;1261;72587;-61
2023/09/26 09:34:00;;;;;;;12.30;7.30;;;;;;;26.10;94.89;100854.94;104568;1253;61736;-60
2023/09/26 09:36:29;;;;;;;11.00;7.60;;;;;;;26.15;90.95;100854.84;104208;1257;59966;-60
2023/09/26 09:38:57;;;;;;;12.10;7.40;;;;;;;26.20;91.67;100853.44;104447;1259;72687;-61
2023/09/26 09:41:27;;;;;;;14.40;7.60;;;;;;;26.26;90.76;100854.55;104377;1254;69767;-60
2023/09/26 09:43:55;;;;;;;;;;;;;;;26.36;89.53;100852.90;104377;1257;72622;-60
2023/09/26 09:46:22;;;;;;;15.10;8.20;;;;;;;26.44;87.58;100850.80;107358;1252;61839;-60
2023/09/26 09:48:54;;;;;;;12.70;7.60;;;;;;;26.50;88.00;100851.33;104297;1261;60820;-60
2023/09/26 09:51:25;;;;;;;9.50;8.50;;;;;;;26.53;83.99;100847.67;104364;1264;72880;-60
2023/09/26 09:53:55;;;;;;;14.30;7.20;;;;;;;26.58;84.72;100849.70;108253;1253;69101;-60
2023/09/26 09:56:24;;;;;;;12.70;6.70;;;;;;;26.66;81.67;100849.39;105617;1254;73314;-60
2023/09/26 09:58:52;;;;;;;11.00;7.70;;;;;;;26.74;81.39;100853.52;105686;1252;61521;-60
2023/09/26 10:01:21;;;;;;;12.50;6.90;;;;;;;26.77;79.57;100853.58;108246;1253;59861;-60
2023/09/26 10:03:50;;;;;;;12.70;7.10;;;;;;;26.77;79.89;100844.77;105130;1259;73684;-60
2023/09/26 10:06:20;;;;;;;8.40;7.10;;;;;;;26.87;78.83;100850.31;104400;1259;69845;-60
2023/09/26 10:08:48;;;;;;;10.70;8.00;;;;;;;26.92;77.60;100849.66;104536;1256;72483;-60
2023/09/26 10:11:18;;;;;;;9.60;7.70;;;;;;;26.96;75.71;100848.91;107109;1254;61279;-60
2023/09/26 10:13:47;;;;;;;13.30;7.00;;;;;;;27.00;76.74;100850.51;108024;1253;59691;-60
2023/09/26 10:16:19;;;;;;;12.70;7.50;;;;;;;27.08;77.43;100845.86;107100;1257;73692;-60
2023/09/26 10:18:49;;;;;;;14.80;7.30;;;;;;;27.16;77.39;100846.54;104446;1257;69450;-60
2023/09/26 10:21:31;;;;;;;13.30;7.70;;;;;;;27.25;77.63;100844.61;104275;1253;72389;-60
2023/09/26 10:24:08;;;;;;;10.30;7.60;;;;;;;27.36;76.58;100844.35;104569;1253;60571;-60
2023/09/26 10:26:44;;;;;;;10.90;7.80;;;;;;;27.44;76.46;100843.96;104467;1269;60613;-59
2023/09/26 10:29:14;;;;;;;11.40;8.00;;;;;;;27.50;73.83;100840.05;104539;1258;73699;-62
2023/09/26 10:31:47;;;;;;;;;;;;;;;27.51;74.20;100835.52;104301;1254;69162;-59
2023/09/26 10:34:15;;;;;;;12.90;7.20;;;;;;;27.57;72.16;100834.88;104437;1259;72691;-64
2023/09/26 10:36:43;;;;;;;11.30;7.90;;;;;;;27.62;74.16;100833.92;104524;1254;60534;-62
2023/09/26 10:39:11;;;;;;;9.30;7.20;;;;;;;27.64;71.51;100832.98;104223;1257;60563;-64
2023/09/26 10:41:39;;;;;;;9.10;7.60;;;;;;;27.68;69.82;100834.05;104559;1257;75128;-65
2023/09/26 10:44:27;;;;;;;11.90;7.20;;;;;;;27.69;68.28;100831.61;104234;1256;68765;-61
2023/09/26 10:46:56;;;;;;;8.30;6.90;;;;;;;27.70;68.93;100830.60;104364;1256;72334;-61
2023/09/26 10:49:25;;;;;;;11.30;6.00;;;;;;;27.75;67.67;100834.08;104377;1257;60350;-61
2023/09/26 10:51:53;;;;;;;10.00;6.50;;;;;;;27.77;63.80;100828.18;108406;1253;59758;-62
2023/09/26 10:54:21;;;;;;;13.90;8.00;;;;;;;27.82;65.44;100825.35;105065;1257;73686;-64
2023/09/26 10:56:48;;;;;;;9.70;6.50;;;;;;;27.86;66.26;100823.28;104365;1258;70175;-63
2023/09/26 10:59:17;;;;;;;8.90;6.90;;;;;;;27.90;67.11;100821.29;104592;1256;72442;-65
2023/09/26 11:01:53;;;;;;;13.60;7.40;;;;;;;27.93;65.12;100820.16;105043;1255;60550;-64
2023/09/26 11:04:21;;;;;;;11.00;7.00;;;;;;;27.93;65.38;100819.04;105154;1253;60620;-64
2023/09/26 11:06:49;;;;;;;16.20;7.10;;;;;;;27.97;65.18;100812.76;104561;1267;73672;-66
2023/09/26 11:09:17;;;;;;;10.30;6.80;;;;;;;27.96;64.34;100812.95;104348;1275;69595;-63
2023/09/26 11:11:47;;;;;;;10.30;7.10;;;;;;;27.95;65.04;100812.59;104522;1256;74628;-63
2023/09/26 11:14:16;;;;;;;7.50;6.70;;;;;;;27.99;64.72;100813.96;104589;1256;60529;-64